aviador You're here:

RJCK Decoded Metar

KUSHIRO AIRPORT in JAPAN
Report Time2017-08-24 00:22:00
UTC Time2017-08-24 00:58:58
Flight Rules vfr VFR
Wind360° at 03 kt
W.Decomp.*RWY 35: 2.9 kt HW 0.9 kt RCW
Visibility8000 m
Phenomena:Fog
Clouds:Few 002 Hf
Scattered 003 Hf
Broken 120 Hf
Ceiling12,000 ft
Temp20°C (ISA +6)
Dew Point20°C (100% RH)
QNH1003 hPa
Density Alt1,631 ft
Elevation322 ft
Report Wrong Elevation
Raw Report
RJCK 240022Z 36003KT 8000 PRFG FEW002 SCT003 BKN120 20/20 Q1003
RMK 2ST002 4ST003 7AC120 A2964 3000N FG N=

Extra information for RJCK:More info

Metar Taf Metar & Taf Last 4 Metars F.Rules Stats Wind Profile Meteogram Temp Stats Airport Information Weather charts Add Link Nearby VenuesMetar ALERT Operation Metar Decoded Social comments